Britney Lee — WDC2895 — position and weather

sailwx.info

Track history (hours):
 
Tides and Currents Weather Stations Pressure Air Temp Water Temp Dewpoint Dewpoint Depression Visibility Wind Speed Wind Dir Waves Ship Positions

Britney Lee

Owner: Western Rivers Boat Management, Inc., Paducah, KY. More information available from US FCC via Universal Licensing System and Coast Guard Vessel Documentation Center.

Last reported at 2017-Jan-19 12:17 UTC. Time now 2017-Jan-23 19:02 UTC.
Position N 38°55' W 090°13'.

Length 44 m; draft 3 m.

Type: Tow > 200 m length. MMSI: 367129650.

Date/timePositionNaut miles runAvg speedWind from/ knotsBaromVisibWave heightAir tempDewpointWater temp
2017-Jan-19 12:17N 38°55' W 090°13'3 3.8
2017-Jan-19 11:33N 38°55' W 090°16'6 6.4
2017-Jan-19 10:33N 38°58' W 090°24'6 5.9
2017-Jan-19 09:31N 38°57' W 090°32'1 0.0
2017-Jan-18 00:33N 38°57' W 090°31'6 6.1
2017-Jan-17 23:33N 38°58' W 090°23'  
2017-Jan-11 01:16N 32°44' W 091°04'6 3.2
2017-Jan-10 23:20N 32°39' W 091°09'3 3.5
2017-Jan-10 22:33N 32°37' W 091°09'4 3.9
2017-Jan-10 21:33N 32°34' W 091°06'5 4.6
2017-Jan-10 20:34N 32°29' W 091°07'4 4.3
2017-Jan-10 19:34N 32°26' W 091°03'4 3.8
2017-Jan-10 18:34N 32°24' W 090°59'3 3.5
2017-Jan-10 17:33N 32°21' W 090°59'4 3.5
2017-Jan-10 16:34N 32°21' W 090°55'3 3.0
2017-Jan-10 15:33N 32°18' W 090°56'4 3.8
2017-Jan-10 14:33N 32°15' W 090°59'4 3.7
2017-Jan-10 13:33N 32°11' W 090°60'3 3.5
2017-Jan-10 12:33N 32°08' W 091°00'3 3.1
2017-Jan-10 11:25N 32°08' W 091°05'  
Track history (hours):
 
Tides and Currents Weather Stations Pressure Air Temp Water Temp Dewpoint Dewpoint Depression Visibility Wind Speed Wind Dir Waves Ship Positions

Britney Lee

Owner: Western Rivers Boat Management, Inc., Paducah, KY. More information available from US FCC via Universal Licensing System and Coast Guard Vessel Documentation Center.

Last reported at 2017-Jan-19 12:17 UTC. Time now 2017-Jan-23 19:02 UTC.
Position N 38°55' W 090°13'.

Length 44 m; draft 3 m.

Type: Tow > 200 m length. MMSI: 367129650.

Date/timePositionNaut miles runAvg speedWind from/ knotsBaromVisibWave heightAir tempDewpointWater temp
2017-Jan-19 12:17N 38°55' W 090°13'3 3.8
2017-Jan-19 11:33N 38°55' W 090°16'6 6.4
2017-Jan-19 10:33N 38°58' W 090°24'6 5.9
2017-Jan-19 09:31N 38°57' W 090°32'1 0.0
2017-Jan-18 00:33N 38°57' W 090°31'6 6.1
2017-Jan-17 23:33N 38°58' W 090°23'  
2017-Jan-11 01:16N 32°44' W 091°04'6 3.2
2017-Jan-10 23:20N 32°39' W 091°09'3 3.5
2017-Jan-10 22:33N 32°37' W 091°09'4 3.9
2017-Jan-10 21:33N 32°34' W 091°06'5 4.6
2017-Jan-10 20:34N 32°29' W 091°07'4 4.3
2017-Jan-10 19:34N 32°26' W 091°03'4 3.8
2017-Jan-10 18:34N 32°24' W 090°59'3 3.5
2017-Jan-10 17:33N 32°21' W 090°59'4 3.5
2017-Jan-10 16:34N 32°21' W 090°55'3 3.0
2017-Jan-10 15:33N 32°18' W 090°56'4 3.8
2017-Jan-10 14:33N 32°15' W 090°59'4 3.7
2017-Jan-10 13:33N 32°11' W 090°60'3 3.5
2017-Jan-10 12:33N 32°08' W 091°00'3 3.1
2017-Jan-10 11:25N 32°08' W 091°05'  

Dump ship's entire track history